Time;durP1;ratioP1;P1;durP2;ratioP2;P2;SDS_P1;SDS_P2;PMS_P1;PMS_P2;Temp;Humidity;BMP_temperature;BMP_pressure;BME280_temperature;BME280_humidity;BME280_pressure;Samples;Min_cycle;Max_cycle;Signal;HPM_P1;HPM_P2
2023/01/02 00:00:07;;;;;;;1.42;1.02;;;11.70;90.50;;;;;;5101283;28;20152;-76
2023/01/02 00:02:33;;;;;;;1.70;0.90;;;11.60;90.50;;;;;;5118000;28;20114;-76
2023/01/02 00:04:59;;;;;;;1.60;0.90;;;11.70;90.60;;;;;;5118240;28;20059;-76
2023/01/02 00:07:24;;;;;;;2.63;1.40;;;11.70;90.50;;;;;;5100948;28;20031;-75
2023/01/02 00:09:50;;;;;;;2.65;1.48;;;11.70;90.50;;;;;;5117593;28;20489;-75
2023/01/02 00:12:15;;;;;;;1.80;1.33;;;11.80;90.50;;;;;;5116985;28;20486;-76
2023/01/02 00:14:41;;;;;;;2.72;1.52;;;11.80;90.50;;;;;;5117468;28;20039;-75
2023/01/02 00:17:07;;;;;;;2.03;1.27;;;11.80;90.40;;;;;;5100112;28;20047;-76
2023/01/02 00:19:32;;;;;;;3.22;1.30;;;11.80;90.60;;;;;;5099671;28;20047;-76
2023/01/02 00:21:58;;;;;;;2.30;1.30;;;11.90;90.40;;;;;;5099790;28;20078;-76
2023/01/02 00:24:23;;;;;;;2.05;1.30;;;11.90;90.40;;;;;;5100228;28;20130;-75
2023/01/02 00:26:49;;;;;;;2.42;1.30;;;12.00;90.40;;;;;;5116595;28;20059;-76
2023/01/02 00:29:15;;;;;;;1.67;1.20;;;11.90;90.30;;;;;;5100172;28;20035;-77
2023/01/02 00:31:40;;;;;;;2.88;1.38;;;12.00;90.40;;;;;;5117924;28;20031;-77
2023/01/02 00:34:06;;;;;;;2.65;1.40;;;12.00;90.40;;;;;;5116824;28;20046;-76
2023/01/02 00:36:31;;;;;;;2.00;1.20;;;12.00;90.60;;;;;;5135565;28;20038;-75
2023/01/02 00:38:57;;;;;;;2.80;1.48;;;12.00;90.40;;;;;;5098450;28;20100;-75
2023/01/02 00:41:23;;;;;;;2.25;1.40;;;12.20;90.40;;;;;;5134908;28;20043;-75
2023/01/02 00:43:49;;;;;;;1.67;1.00;;;12.10;90.30;;;;;;5116293;28;20566;-76
2023/01/02 00:46:14;;;;;;;2.03;1.27;;;12.10;90.30;;;;;;5116610;28;20039;-75
2023/01/02 00:48:40;;;;;;;2.53;1.00;;;12.10;90.30;;;;;;5099475;28;20072;-76
2023/01/02 00:51:07;;;;;;;1.90;1.00;;;12.10;90.30;;;;;;5099477;28;20035;-75
2023/01/02 00:53:32;;;;;;;1.77;0.98;;;12.10;90.40;;;;;;5099805;28;20065;-75
2023/01/02 00:55:58;;;;;;;0.93;0.80;;;12.10;90.40;;;;;;5082365;28;20043;-75
2023/01/02 00:58:24;;;;;;;1.80;0.90;;;12.10;90.40;;;;;;5099268;28;20068;-75
2023/01/02 01:00:50;;;;;;;1.15;1.00;;;12.10;90.40;;;;;;5099263;28;20057;-75
2023/01/02 01:03:16;;;;;;;2.22;1.10;;;12.10;90.40;;;;;;5116289;28;20035;-75
2023/01/02 01:05:41;;;;;;;1.52;0.93;;;12.10;90.40;;;;;;5099101;28;20088;-75
2023/01/02 01:08:07;;;;;;;2.75;1.10;;;12.10;90.40;;;;;;5116031;28;20031;-75
2023/01/02 01:10:35;;;;;;;1.73;1.02;;;12.10;90.70;;;;;;5098855;28;20040;-75
2023/01/02 01:13:01;;;;;;;1.30;0.88;;;12.10;90.50;;;;;;5082048;28;20049;-76
2023/01/02 01:15:27;;;;;;;2.28;1.17;;;12.10;90.50;;;;;;5099417;28;20047;-76
2023/01/02 01:17:52;;;;;;;1.45;0.98;;;12.10;90.50;;;;;;5116523;28;20118;-75
2023/01/02 01:20:18;;;;;;;1.85;1.20;;;12.10;90.40;;;;;;5081934;28;20125;-75
2023/01/02 01:22:44;;;;;;;1.95;0.98;;;12.10;90.40;;;;;;5115757;28;20039;-75
2023/01/02 01:25:09;;;;;;;1.38;1.08;;;12.10;90.40;;;;;;5098553;28;20059;-75
2023/01/02 01:27:35;;;;;;;2.45;0.90;;;12.20;90.50;;;;;;5116975;28;20035;-76
2023/01/02 01:30:03;;;;;;;2.55;0.90;;;12.20;90.50;;;;;;5082898;28;20035;-76
2023/01/02 01:32:29;;;;;;;1.05;0.90;;;12.30;90.50;;;;;;5099858;28;20047;-75
2023/01/02 01:34:54;;;;;;;1.05;0.98;;;12.20;90.40;;;;;;5115261;28;20050;-76
2023/01/02 01:37:20;;;;;;;1.13;0.93;;;12.20;90.40;;;;;;5134443;28;20043;-76
2023/01/02 01:39:46;;;;;;;3.75;1.30;;;12.30;90.40;;;;;;5133815;28;20043;-76
2023/01/02 01:42:13;;;;;;;1.58;1.05;;;12.30;90.40;;;;;;5099212;28;20043;-75
2023/01/02 01:44:46;;;;;;;1.20;0.90;;;12.30;90.30;;;;;;5117596;28;20039;-77
2023/01/02 01:47:37;;;;;;;1.67;1.10;;;12.40;90.30;;;;;;5082568;28;20092;-74
2023/01/02 01:50:25;;;;;;;1.33;1.02;;;12.40;90.30;;;;;;5118434;28;20043;-76
2023/01/02 01:52:56;;;;;;;1.98;1.10;;;12.40;90.30;;;;;;5118156;28;20077;-76
2023/01/02 01:55:25;;;;;;;1.13;0.93;;;12.50;90.30;;;;;;5135050;28;20043;-77
2023/01/02 01:57:56;;;;;;;1.63;1.02;;;12.40;90.30;;;;;;5117902;28;20044;-77
2023/01/02 02:00:22;;;;;;;3.10;1.50;;;12.40;90.30;;;;;;5099764;28;20051;-77
2023/01/02 02:02:50;;;;;;;2.33;1.20;;;12.50;90.30;;;;;;5099166;28;20076;-77
2023/01/02 02:05:20;;;;;;;2.35;1.20;;;12.40;90.30;;;;;;5098977;28;20495;-75
2023/01/02 02:07:59;;;;;;;2.85;1.20;;;12.40;90.30;;;;;;5133454;28;20049;-74
2023/01/02 02:10:24;;;;;;;1.52;1.17;;;12.40;90.40;;;;;;5098971;28;20062;-75
2023/01/02 02:12:50;;;;;;;1.67;1.20;;;12.40;90.40;;;;;;5114914;28;20046;-75
2023/01/02 02:15:22;;;;;;;1.95;1.05;;;12.40;90.40;;;;;;5114873;28;20490;-74
2023/01/02 02:18:27;;;;;;;2.05;1.33;;;12.40;90.40;;;;;;5133197;28;20489;-75
2023/01/02 02:21:11;;;;;;;2.78;1.45;;;12.40;90.40;;;;;;5118558;28;20039;-75
2023/01/02 02:24:07;;;;;;;2.85;1.38;;;12.40;90.40;;;;;;5082652;28;20062;-75
2023/01/02 02:26:48;;;;;;;1.92;1.25;;;12.50;90.40;;;;;;5114796;28;20508;-75
2023/01/02 02:29:34;;;;;;;1.65;1.10;;;12.50;90.60;;;;;;5133155;28;20517;-75
2023/01/02 02:32:32;;;;;;;2.33;1.60;;;12.50;90.40;;;;;;5099748;28;20047;-75
2023/01/02 02:35:17;;;;;;;3.05;1.40;;;12.40;90.40;;;;;;5132697;28;20118;-75
2023/01/02 02:38:08;;;;;;;1.80;1.20;;;12.40;90.40;;;;;;5133022;28;20067;-74
2023/01/02 02:41:08;;;;;;;2.40;1.20;;;12.40;90.50;;;;;;5132730;28;20047;-74
2023/01/02 02:44:03;;;;;;;2.88;1.30;;;12.40;90.50;;;;;;5132941;28;20047;-75
2023/01/02 02:46:47;;;;;;;1.08;0.98;;;12.40;90.50;;;;;;5103475;28;20065;-75
2023/01/02 02:49:49;;;;;;;1.30;1.20;;;12.40;90.50;;;;;;5114342;28;20126;-75
2023/01/02 02:52:39;;;;;;;2.03;0.98;;;12.40;90.60;;;;;;5132524;28;20100;-75
2023/01/02 02:55:13;;;;;;;1.40;0.93;;;12.40;90.60;;;;;;5132582;28;20036;-75
2023/01/02 02:57:41;;;;;;;3.88;1.25;;;12.40;90.60;;;;;;5133112;28;20066;-75
2023/01/02 03:00:09;;;;;;;3.22;1.20;;;12.50;90.60;;;;;;5132337;28;20043;-74
2023/01/02 03:02:36;;;;;;;1.58;1.20;;;12.40;90.60;;;;;;5134142;27;20092;-74
2023/01/02 03:05:05;;;;;;;2.08;1.20;;;12.40;90.60;;;;;;5101041;28;20056;-74
2023/01/02 03:07:40;;;;;;;2.65;1.05;;;12.40;90.60;;;;;;5136061;28;20055;-75
2023/01/02 03:10:28;;;;;;;3.00;1.38;;;12.50;90.70;;;;;;5117484;28;20146;-74
2023/01/02 03:13:30;;;;;;;2.10;1.20;;;12.40;90.70;;;;;;5117446;28;20111;-74
2023/01/02 03:16:10;;;;;;;1.90;1.10;;;12.50;90.70;;;;;;5123146;28;20486;-75
2023/01/02 03:19:01;;;;;;;1.48;0.90;;;12.50;90.70;;;;;;5117466;28;20035;-74
2023/01/02 03:21:41;;;;;;;1.87;1.20;;;12.50;90.70;;;;;;5135823;28;20039;-75
2023/01/02 03:24:09;;;;;;;2.30;1.27;;;12.50;90.70;;;;;;5135752;28;20031;-75
2023/01/02 03:26:38;;;;;;;4.00;1.33;;;12.50;90.80;;;;;;5136336;28;20035;-74
2023/01/02 03:29:11;;;;;;;3.25;1.50;;;12.50;90.80;;;;;;5117401;28;20039;-75
2023/01/02 03:31:39;;;;;;;2.65;1.20;;;12.40;90.80;;;;;;5101463;28;20047;-75
2023/01/02 03:34:12;;;;;;;2.10;1.20;;;12.50;90.80;;;;;;5136168;28;20045;-75
2023/01/02 03:36:41;;;;;;;2.08;1.40;;;12.50;90.80;;;;;;5135604;28;20123;-75
2023/01/02 03:39:11;;;;;;;1.80;1.10;;;12.50;90.80;;;;;;5117007;28;20543;-75
2023/01/02 03:41:43;;;;;;;2.80;1.53;;;12.50;90.80;;;;;;5135571;28;20039;-75
2023/01/02 03:44:11;;;;;;;2.47;1.38;;;12.60;90.80;;;;;;5135532;28;20035;-75
2023/01/02 03:46:44;;;;;;;2.35;1.30;;;12.60;90.80;;;;;;5117644;28;20039;-74
2023/01/02 03:49:22;;;;;;;1.73;1.17;;;12.60;90.80;;;;;;5134847;28;20041;-74
2023/01/02 03:51:49;;;;;;;2.05;1.10;;;12.60;90.80;;;;;;5135987;28;20049;-74
2023/01/02 03:54:16;;;;;;;2.72;1.42;;;12.60;90.80;;;;;;5117566;28;20039;-74
2023/01/02 03:56:56;;;;;;;2.55;1.10;;;12.60;90.80;;;;;;5135253;28;20134;-74
2023/01/02 03:59:38;;;;;;;1.50;1.00;;;12.60;90.80;;;;;;5135030;28;20075;-74
2023/01/02 04:02:25;;;;;;;3.78;1.20;;;12.70;90.80;;;;;;5116780;28;20039;-74
2023/01/02 04:04:55;;;;;;;2.45;1.10;;;12.60;90.80;;;;;;5135597;28;20046;-74
2023/01/02 04:07:37;;;;;;;2.53;1.13;;;12.60;91.10;;;;;;5135296;28;20047;-74
2023/01/02 04:10:05;;;;;;;1.50;0.80;;;12.60;90.80;;;;;;5116543;28;20439;-74
2023/01/02 04:12:35;;;;;;;1.92;0.90;;;12.60;90.80;;;;;;5135010;27;20051;-74
2023/01/02 04:15:05;;;;;;;1.63;1.10;;;12.60;90.80;;;;;;5116696;28;20535;-74
2023/01/02 04:17:37;;;;;;;1.45;1.23;;;12.60;90.90;;;;;;5134903;28;20067;-74
2023/01/02 04:20:09;;;;;;;4.20;1.30;;;12.60;90.90;;;;;;5116535;28;20043;-74
2023/01/02 04:22:41;;;;;;;4.88;1.20;;;12.70;90.90;;;;;;5117045;28;20478;-74
2023/01/02 04:25:12;;;;;;;2.47;1.40;;;12.60;90.90;;;;;;5134887;28;20035;-74
2023/01/02 04:28:10;;;;;;;2.47;1.30;;;12.70;90.90;;;;;;5099938;28;20045;-74
2023/01/02 04:30:40;;;;;;;3.17;1.48;;;12.70;91.20;;;;;;5134986;28;20035;-74
2023/01/02 04:33:10;;;;;;;2.00;1.30;;;12.60;90.90;;;;;;5135314;28;20524;-74
2023/01/02 04:35:36;;;;;;;2.13;1.38;;;12.60;90.90;;;;;;5134796;28;20431;-74
2023/01/02 04:38:10;;;;;;;1.58;1.17;;;12.60;90.90;;;;;;5134578;28;20074;-74
2023/01/02 04:40:37;;;;;;;2.17;1.40;;;12.60;90.90;;;;;;5134332;28;20043;-74
2023/01/02 04:43:15;;;;;;;2.03;1.30;;;12.60;90.90;;;;;;5134464;28;20501;-74
2023/01/02 04:45:40;;;;;;;2.30;1.20;;;12.70;91.00;;;;;;5134514;28;20434;-74
2023/01/02 04:48:06;;;;;;;2.97;1.48;;;12.70;91.00;;;;;;5134646;28;20057;-74
2023/01/02 04:50:31;;;;;;;2.67;1.50;;;12.60;91.00;;;;;;5134455;28;20027;-74
2023/01/02 04:52:57;;;;;;;3.17;1.38;;;12.60;91.00;;;;;;5134527;28;20035;-74
2023/01/02 04:55:23;;;;;;;2.00;1.30;;;12.60;91.00;;;;;;5134280;28;20039;-74
2023/01/02 04:57:48;;;;;;;3.75;1.50;;;12.60;91.00;;;;;;5134207;28;20150;-74
2023/01/02 05:00:14;;;;;;;2.38;1.30;;;12.60;91.00;;;;;;5115943;28;20051;-74
2023/01/02 05:02:40;;;;;;;2.50;1.30;;;12.60;91.00;;;;;;5134305;28;20502;-74
2023/01/02 05:05:07;;;;;;;1.98;1.40;;;12.60;91.10;;;;;;5116142;28;20145;-74
2023/01/02 05:07:34;;;;;;;1.70;1.30;;;12.60;91.10;;;;;;5134342;28;20043;-74
2023/01/02 05:09:59;;;;;;;2.58;1.40;;;12.60;91.10;;;;;;5134309;28;20542;-74
2023/01/02 05:12:25;;;;;;;2.97;1.60;;;12.70;91.10;;;;;;5134519;28;20126;-74
2023/01/02 05:14:50;;;;;;;2.40;1.50;;;12.60;91.10;;;;;;5134483;28;20051;-74
2023/01/02 05:17:16;;;;;;;2.30;1.42;;;12.60;91.10;;;;;;5134582;28;20505;-74
2023/01/02 05:19:42;;;;;;;2.17;1.30;;;12.60;91.10;;;;;;5115764;28;20509;-74
2023/01/02 05:24:48;;;;;;;2.50;1.50;;;12.70;91.20;;;;;;5116992;28;20497;-74
2023/01/02 05:27:13;;;;;;;1.67;1.25;;;12.60;91.10;;;;;;5134077;28;20051;-74
2023/01/02 05:29:39;;;;;;;1.73;1.30;;;12.60;91.10;;;;;;5098521;28;20047;-74
2023/01/02 05:32:05;;;;;;;2.72;1.33;;;12.60;91.20;;;;;;5115534;28;20042;-74
2023/01/02 05:34:30;;;;;;;2.63;1.45;;;12.60;91.20;;;;;;5133786;28;20104;-74
2023/01/02 05:36:56;;;;;;;2.83;1.63;;;12.60;91.20;;;;;;5134383;28;20047;-74
2023/01/02 05:39:21;;;;;;;1.80;1.05;;;12.60;91.20;;;;;;5134279;28;20043;-74
2023/01/02 05:41:47;;;;;;;2.30;1.40;;;12.60;91.20;;;;;;5134352;28;20459;-74
2023/01/02 05:44:13;;;;;;;2.35;1.40;;;12.60;91.20;;;;;;5134352;28;20035;-74
2023/01/02 05:46:38;;;;;;;2.00;1.30;;;12.60;91.20;;;;;;5115730;28;20433;-74
2023/01/02 05:49:06;;;;;;;3.70;1.40;;;12.60;91.20;;;;;;5134401;28;20047;-75
2023/01/02 05:51:32;;;;;;;2.83;1.30;;;12.70;91.20;;;;;;5134380;28;20061;-74
2023/01/02 05:53:58;;;;;;;2.08;1.20;;;12.70;91.20;;;;;;5115407;28;20065;-74
2023/01/02 05:56:26;;;;;;;3.65;1.33;;;12.70;91.20;;;;;;5115176;28;20073;-75
2023/01/02 05:58:52;;;;;;;2.05;1.17;;;12.70;91.20;;;;;;5115214;28;20084;-75
2023/01/02 06:01:20;;;;;;;2.05;1.33;;;12.70;91.20;;;;;;5115987;28;20180;-74
2023/01/02 06:03:49;;;;;;;1.92;1.30;;;12.60;91.20;;;;;;5115477;28;20123;-74
2023/01/02 06:06:16;;;;;;;3.45;1.55;;;12.70;91.20;;;;;;5133588;28;20039;-74
2023/01/02 06:08:41;;;;;;;3.15;1.52;;;12.70;91.20;;;;;;5134052;28;20047;-74
2023/01/02 06:11:07;;;;;;;4.35;1.60;;;12.70;91.20;;;;;;5115897;28;20118;-75
2023/01/02 06:13:35;;;;;;;2.78;1.70;;;12.70;91.20;;;;;;5133561;28;20031;-74
2023/01/02 06:16:02;;;;;;;2.15;1.40;;;12.70;91.10;;;;;;5115915;28;20099;-74
2023/01/02 06:18:30;;;;;;;2.40;1.40;;;12.70;91.10;;;;;;5133826;28;20039;-75
2023/01/02 06:20:59;;;;;;;3.70;1.50;;;12.70;91.10;;;;;;5133492;28;20035;-74
2023/01/02 06:23:25;;;;;;;2.53;1.63;;;12.70;91.10;;;;;;5133289;28;20151;-74
2023/01/02 06:25:51;;;;;;;2.40;1.50;;;12.80;91.10;;;;;;5133493;28;20028;-75
2023/01/02 06:28:16;;;;;;;3.20;1.70;;;12.70;91.10;;;;;;5133658;28;20046;-74
2023/01/02 06:30:42;;;;;;;1.88;1.45;;;12.70;91.10;;;;;;5133663;28;20059;-74
2023/01/02 06:33:08;;;;;;;3.33;1.40;;;12.70;91.10;;;;;;5133197;28;20087;-74
2023/01/02 06:35:33;;;;;;;3.15;1.75;;;12.70;91.10;;;;;;5132983;28;20042;-74
2023/01/02 06:37:59;;;;;;;2.50;1.35;;;12.70;91.20;;;;;;5135571;27;20051;-74
2023/01/02 06:40:24;;;;;;;2.17;1.25;;;12.60;91.20;;;;;;5136734;28;20039;-74
2023/01/02 06:42:50;;;;;;;3.25;1.35;;;12.60;91.20;;;;;;5118283;28;20375;-75
2023/01/02 06:45:16;;;;;;;1.85;1.10;;;12.60;91.30;;;;;;5101177;28;20084;-76
2023/01/02 06:47:41;;;;;;;3.05;1.40;;;12.50;91.30;;;;;;5136719;28;20038;-75
2023/01/02 06:50:07;;;;;;;1.33;1.20;;;12.50;91.30;;;;;;5136530;28;20487;-75
2023/01/02 06:52:33;;;;;;;2.20;1.10;;;12.30;91.30;;;;;;5118201;28;20035;-75
2023/01/02 06:54:59;;;;;;;1.30;1.00;;;12.10;91.40;;;;;;5136988;28;20035;-75
2023/01/02 06:57:25;;;;;;;1.40;1.00;;;11.80;91.50;;;;;;5136529;28;20047;-75
2023/01/02 06:59:50;;;;;;;0.70;0.70;;;11.70;91.70;;;;;;5100880;28;20093;-75
2023/01/02 07:02:16;;;;;;;0.47;0.47;;;11.50;91.90;;;;;;5117977;28;20498;-75
2023/01/02 07:04:41;;;;;;;0.90;0.55;;;11.40;91.90;;;;;;5100871;28;20118;-75
2023/01/02 07:07:07;;;;;;;0.45;0.30;;;11.20;92.00;;;;;;5118564;28;20047;-75
2023/01/02 07:09:33;;;;;;;0.50;0.47;;;11.20;92.00;;;;;;5117731;28;20039;-75
2023/01/02 07:11:59;;;;;;;0.28;0.28;;;11.10;92.00;;;;;;5101233;28;20035;-75
2023/01/02 07:14:25;;;;;;;0.63;0.40;;;11.00;92.10;;;;;;5136598;28;20058;-74
2023/01/02 07:16:51;;;;;;;0.40;0.30;;;10.90;92.10;;;;;;5136103;28;20035;-75
2023/01/02 07:19:16;;;;;;;0.90;0.50;;;10.90;92.10;;;;;;5118208;28;20061;-75
2023/01/02 07:21:42;;;;;;;0.20;0.20;;;10.90;92.10;;;;;;5117798;28;20039;-75
2023/01/02 07:24:12;;;;;;;0.10;0.10;;;10.80;92.10;;;;;;5136658;28;20039;-75
2023/01/02 07:26:38;;;;;;;0.35;0.28;;;10.80;92.10;;;;;;5136013;28;20039;-76
2023/01/02 07:29:04;;;;;;;0.30;0.30;;;10.70;92.10;;;;;;5117653;28;20069;-75
2023/01/02 07:31:29;;;;;;;0.50;0.50;;;10.70;92.10;;;;;;5136553;28;20065;-75
2023/01/02 07:33:56;;;;;;;0.38;0.38;;;10.60;92.10;;;;;;5118250;28;20047;-75
2023/01/02 07:36:23;;;;;;;0.45;0.45;;;10.60;92.10;;;;;;5118333;28;20072;-75
2023/01/02 07:38:51;;;;;;;0.40;0.40;;;10.60;92.20;;;;;;5117236;28;20043;-75
2023/01/02 07:41:19;;;;;;;0.40;0.40;;;10.60;92.20;;;;;;5117400;28;20402;-75
2023/01/02 07:43:45;;;;;;;0.30;0.30;;;10.50;92.20;;;;;;5100710;28;20039;-75
2023/01/02 07:46:13;;;;;;;0.80;0.40;;;10.50;92.20;;;;;;5117530;28;20081;-75
2023/01/02 07:48:39;;;;;;;0.43;0.43;;;10.50;92.20;;;;;;5117197;28;20506;-74
2023/01/02 07:51:06;;;;;;;0.60;0.60;;;10.50;92.20;;;;;;5117168;28;20061;-75
2023/01/02 07:53:32;;;;;;;1.05;0.70;;;10.40;92.20;;;;;;5117109;28;20047;-75
2023/01/02 07:55:58;;;;;;;0.80;0.60;;;10.40;92.20;;;;;;5136168;28;20558;-74
2023/01/02 07:58:24;;;;;;;0.70;0.70;;;10.50;92.20;;;;;;5117104;28;20039;-75
2023/01/02 08:00:50;;;;;;;0.73;0.70;;;10.50;92.20;;;;;;5136027;28;20087;-75
2023/01/02 08:03:16;;;;;;;1.20;0.90;;;10.40;92.10;;;;;;5135704;28;20035;-75
2023/01/02 08:05:42;;;;;;;1.35;1.00;;;10.40;92.10;;;;;;5135554;28;20038;-75
2023/01/02 08:08:08;;;;;;;0.73;0.70;;;10.40;92.10;;;;;;5116988;28;20043;-75
2023/01/02 08:10:36;;;;;;;0.93;0.88;;;10.40;92.10;;;;;;5135798;28;20134;-75
2023/01/02 08:13:06;;;;;;;1.58;1.13;;;10.40;92.10;;;;;;5136184;28;20065;-74
2023/01/02 08:15:32;;;;;;;1.88;0.73;;;10.40;92.10;;;;;;5101398;28;20035;-75
2023/01/02 08:17:57;;;;;;;1.20;1.00;;;10.40;92.10;;;;;;5135249;28;20471;-74
2023/01/02 08:20:24;;;;;;;2.10;1.30;;;10.40;92.10;;;;;;5117131;28;20050;-74
2023/01/02 08:22:50;;;;;;;2.25;1.52;;;10.40;92.10;;;;;;5082989;28;20488;-75
2023/01/02 08:25:15;;;;;;;2.35;1.48;;;10.40;92.10;;;;;;5135278;28;20030;-74
2023/01/02 08:27:41;;;;;;;3.08;1.90;;;10.40;92.00;;;;;;5135009;28;20061;-75
2023/01/02 08:30:07;;;;;;;2.85;2.00;;;10.40;92.00;;;;;;5134947;28;20398;-74
2023/01/02 08:32:36;;;;;;;2.63;1.90;;;10.40;92.00;;;;;;5116766;28;20046;-74
2023/01/02 08:35:03;;;;;;;3.05;1.92;;;10.40;92.00;;;;;;5134831;28;20039;-74
2023/01/02 08:37:28;;;;;;;2.70;1.90;;;10.30;92.00;;;;;;5116354;28;20513;-74
2023/01/02 08:39:54;;;;;;;3.15;2.10;;;10.40;92.10;;;;;;5099226;28;20107;-74
2023/01/02 08:42:19;;;;;;;2.58;1.90;;;10.40;92.10;;;;;;5134853;28;20117;-74
2023/01/02 08:44:45;;;;;;;2.83;1.90;;;10.30;92.00;;;;;;5134882;28;20156;-74
2023/01/02 08:47:11;;;;;;;3.17;2.05;;;10.30;92.00;;;;;;5116384;28;20031;-74
2023/01/02 08:49:36;;;;;;;2.38;1.90;;;10.30;92.00;;;;;;5116318;28;20035;-74
2023/01/02 08:52:02;;;;;;;3.63;2.08;;;10.30;92.00;;;;;;5135012;28;20045;-74
2023/01/02 08:54:28;;;;;;;2.50;1.80;;;10.30;92.10;;;;;;5134456;28;20047;-74
2023/01/02 08:56:54;;;;;;;2.50;1.60;;;10.30;92.10;;;;;;5134366;28;20035;-74
2023/01/02 08:59:23;;;;;;;2.70;1.70;;;10.30;92.10;;;;;;5133664;27;20037;-74
2023/01/02 09:01:49;;;;;;;2.58;1.67;;;10.30;92.10;;;;;;5134765;28;20081;-74
2023/01/02 09:04:14;;;;;;;2.72;1.70;;;10.30;92.10;;;;;;5134368;28;20066;-74
2023/01/02 09:06:42;;;;;;;2.05;1.52;;;10.20;92.10;;;;;;5115916;28;20464;-75
2023/01/02 09:09:08;;;;;;;1.83;1.23;;;10.20;92.10;;;;;;5134831;28;20512;-74
2023/01/02 09:11:36;;;;;;;2.25;1.40;;;10.20;92.10;;;;;;5134374;28;20065;-74
2023/01/02 09:14:04;;;;;;;2.00;1.48;;;10.20;92.10;;;;;;5116828;28;20035;-74
2023/01/02 09:16:30;;;;;;;2.05;1.55;;;10.20;92.10;;;;;;5134223;28;20054;-76
2023/01/02 09:18:58;;;;;;;2.20;1.50;;;10.20;92.10;;;;;;5134720;28;20035;-74
2023/01/02 09:21:23;;;;;;;1.83;1.40;;;10.10;92.10;;;;;;5134779;28;20035;-74
2023/01/02 09:23:49;;;;;;;1.88;1.35;;;10.10;92.10;;;;;;5134769;28;20031;-74
2023/01/02 09:26:15;;;;;;;2.30;1.50;;;10.20;92.10;;;;;;5134258;28;20043;-75
2023/01/02 09:28:41;;;;;;;2.38;1.60;;;10.20;92.10;;;;;;5115878;28;20122;-75
2023/01/02 09:31:11;;;;;;;1.77;1.27;;;10.10;92.10;;;;;;5134137;28;20043;-75
2023/01/02 09:33:38;;;;;;;1.70;1.33;;;10.20;92.10;;;;;;5099334;28;20043;-75
2023/01/02 09:36:05;;;;;;;1.38;1.10;;;10.20;92.10;;;;;;5115800;28;20070;-74
2023/01/02 09:38:31;;;;;;;1.88;1.30;;;10.10;92.10;;;;;;5115456;28;20061;-75
2023/01/02 09:40:59;;;;;;;1.80;1.17;;;10.10;92.10;;;;;;5081812;28;20039;-74
2023/01/02 09:43:32;;;;;;;1.50;0.90;;;10.10;92.10;;;;;;5134062;28;20110;-74
2023/01/02 09:46:01;;;;;;;1.60;1.10;;;10.10;92.10;;;;;;5115990;28;20039;-77
2023/01/02 09:48:31;;;;;;;1.23;1.13;;;10.10;92.10;;;;;;5134018;28;20039;-75
2023/01/02 09:50:58;;;;;;;1.38;1.00;;;10.10;92.10;;;;;;5116102;28;20035;-75
2023/01/02 09:53:25;;;;;;;1.77;1.00;;;10.10;92.00;;;;;;5136852;28;20058;-74
2023/01/02 09:56:09;;;;;;;1.13;1.02;;;10.00;92.00;;;;;;5100025;28;20035;-75
2023/01/02 09:58:59;;;;;;;1.92;0.73;;;10.00;92.00;;;;;;5117409;28;20090;-74
2023/01/02 10:01:47;;;;;;;1.52;1.20;;;10.10;92.00;;;;;;5127268;28;20055;-75
2023/01/02 10:04:34;;;;;;;1.23;0.75;;;10.00;91.90;;;;;;5138849;28;20537;-75
2023/01/02 10:07:14;;;;;;;0.65;0.65;;;10.10;91.90;;;;;;5136910;28;20114;-75
2023/01/02 10:09:51;;;;;;;1.00;0.70;;;10.10;91.80;;;;;;5133644;28;20043;-75
2023/01/02 10:12:47;;;;;;;1.60;0.95;;;10.00;91.80;;;;;;5098413;28;20097;-76
2023/01/02 10:15:19;;;;;;;2.40;0.98;;;10.00;91.80;;;;;;5101185;28;20050;-75
2023/01/02 10:17:51;;;;;;;0.95;0.70;;;10.10;91.80;;;;;;5101828;28;20047;-75
2023/01/02 10:20:26;;;;;;;1.90;0.80;;;10.00;91.80;;;;;;5116970;28;20085;-75
2023/01/02 10:23:01;;;;;;;0.98;0.70;;;10.00;91.80;;;;;;5135903;28;20497;-75
2023/01/02 10:25:36;;;;;;;0.75;0.50;;;10.00;91.80;;;;;;5098307;28;20027;-76
2023/01/02 10:28:38;;;;;;;1.42;0.68;;;9.90;91.80;;;;;;5098911;28;20126;-75
2023/01/02 10:31:13;;;;;;;0.77;0.57;;;9.90;91.80;;;;;;5115267;28;20160;-75
2023/01/02 10:33:47;;;;;;;1.17;0.65;;;10.00;91.80;;;;;;5082003;28;20080;-75
2023/01/02 10:36:25;;;;;;;1.00;0.70;;;10.00;91.80;;;;;;5098050;28;20606;-75
2023/01/02 10:38:52;;;;;;;0.80;0.60;;;10.00;91.70;;;;;;5099104;28;20039;-74
2023/01/02 10:41:18;;;;;;;1.42;0.90;;;10.00;91.70;;;;;;5134111;28;20039;-74
2023/01/02 10:43:51;;;;;;;1.23;0.93;;;10.10;91.70;;;;;;5081300;28;20027;-75
2023/01/02 10:46:16;;;;;;;0.98;0.80;;;10.00;91.70;;;;;;5098961;28;20075;-75
2023/01/02 10:48:42;;;;;;;0.80;0.70;;;10.10;91.70;;;;;;5115062;28;20046;-75
2023/01/02 10:51:13;;;;;;;1.02;0.70;;;10.10;91.60;;;;;;5081002;28;20436;-75
2023/01/02 10:53:39;;;;;;;0.75;0.52;;;10.20;91.70;;;;;;5115232;28;20073;-74
2023/01/02 10:56:14;;;;;;;1.15;0.80;;;10.20;91.60;;;;;;5115337;28;20039;-74
2023/01/02 10:58:46;;;;;;;1.25;0.85;;;10.20;91.60;;;;;;5097393;28;20039;-74
2023/01/02 11:01:17;;;;;;;1.38;0.60;;;10.20;91.50;;;;;;5114607;28;20039;-74
2023/01/02 11:03:44;;;;;;;;;;;10.20;91.50;;;;;;5098603;28;20062;-73
2023/01/02 11:06:20;;;;;;;0.63;0.57;;;10.20;91.50;;;;;;5114432;28;19915;-73
2023/01/02 11:08:56;;;;;;;0.95;0.70;;;10.30;91.50;;;;;;5114593;28;20160;-73
2023/01/02 11:11:24;;;;;;;1.63;0.90;;;10.20;91.50;;;;;;5133398;28;20043;-76
2023/01/02 11:13:51;;;;;;;0.57;0.50;;;10.20;91.50;;;;;;5133051;28;20042;-74
2023/01/02 11:16:17;;;;;;;0.77;0.70;;;10.20;91.50;;;;;;5080915;28;20518;-75
2023/01/02 11:18:51;;;;;;;0.38;0.38;;;10.20;91.50;;;;;;5097421;28;20498;-75
2023/01/02 11:21:27;;;;;;;1.63;0.60;;;10.30;91.50;;;;;;5114605;28;20035;-75
2023/01/02 11:24:00;;;;;;;0.85;0.50;;;10.30;91.50;;;;;;5083110;28;20043;-74
2023/01/02 11:26:27;;;;;;;0.50;0.40;;;10.30;91.50;;;;;;5136169;28;20043;-75
2023/01/02 11:28:55;;;;;;;0.77;0.70;;;10.30;91.40;;;;;;5118590;28;20039;-76
2023/01/02 11:31:22;;;;;;;0.50;0.40;;;10.30;91.40;;;;;;5100775;28;20053;-74
2023/01/02 11:33:47;;;;;;;1.15;0.60;;;10.40;91.40;;;;;;5117824;28;20086;-74
2023/01/02 11:36:15;;;;;;;0.70;0.70;;;10.30;91.40;;;;;;5136022;28;20102;-74
2023/01/02 11:38:53;;;;;;;2.05;0.70;;;10.30;91.40;;;;;;5136447;28;20104;-74
2023/01/02 11:44:37;;;;;;;1.35;0.60;;;10.40;91.40;;;;;;5134989;28;20120;-74
2023/01/02 11:47:06;;;;;;;2.08;0.70;;;10.30;91.40;;;;;;5135679;28;20066;-75
2023/01/02 11:49:47;;;;;;;1.90;0.77;;;10.20;91.30;;;;;;5136134;28;20043;-74
2023/01/02 11:52:15;;;;;;;;;;;10.30;91.30;;;;;;5135967;28;20035;-74
2023/01/02 11:54:48;;;;;;;1.15;0.70;;;10.30;91.30;;;;;;5135481;28;20398;-74
2023/01/02 11:57:24;;;;;;;1.00;0.70;;;10.30;91.30;;;;;;5135462;28;20130;-74
2023/01/02 11:59:52;;;;;;;0.93;0.68;;;10.20;91.30;;;;;;5135836;28;20431;-74
2023/01/02 12:02:39;;;;;;;1.20;0.73;;;10.30;91.30;;;;;;5117286;28;20054;-74
2023/01/02 12:05:19;;;;;;;1.75;0.52;;;10.30;91.30;;;;;;5117140;28;20118;-74
2023/01/02 12:07:51;;;;;;;1.27;0.70;;;10.30;91.30;;;;;;5135393;28;20100;-74
2023/01/02 12:10:29;;;;;;;1.45;0.80;;;10.30;91.30;;;;;;5101210;28;20084;-73
2023/01/02 12:13:18;;;;;;;0.65;0.65;;;10.40;91.30;;;;;;5100853;28;20043;-74
2023/01/02 12:16:00;;;;;;;1.40;0.93;;;10.30;91.20;;;;;;5116871;28;20085;-73
2023/01/02 12:18:58;;;;;;;2.35;1.00;;;10.30;91.20;;;;;;5116889;28;20046;-73
2023/01/02 12:21:48;;;;;;;1.52;0.90;;;10.20;91.20;;;;;;5135312;28;20044;-73
2023/01/02 12:24:39;;;;;;;0.88;0.80;;;10.30;91.20;;;;;;5102681;28;20421;-75
2023/01/02 12:27:18;;;;;;;1.00;0.70;;;10.20;91.20;;;;;;5103320;28;20131;-73
2023/01/02 12:30:12;;;;;;;0.80;0.70;;;10.30;91.30;;;;;;5117889;28;20061;-73
2023/01/02 12:32:59;;;;;;;0.80;0.70;;;10.30;91.20;;;;;;5100900;28;20043;-73
2023/01/02 12:35:40;;;;;;;2.08;0.80;;;10.30;91.20;;;;;;5100174;28;20046;-73
2023/01/02 12:38:09;;;;;;;1.38;0.80;;;10.30;91.20;;;;;;5083848;28;20071;-73
2023/01/02 12:41:04;;;;;;;1.38;0.60;;;10.30;91.20;;;;;;5134885;28;20043;-73
2023/01/02 12:43:55;;;;;;;1.75;0.60;;;10.40;91.20;;;;;;5103677;28;20486;-74
2023/01/02 12:47:00;;;;;;;0.73;0.65;;;10.40;91.20;;;;;;5134692;28;20035;-74
2023/01/02 12:49:50;;;;;;;0.60;0.60;;;10.40;91.20;;;;;;5134698;28;20498;-74
2023/01/02 12:52:50;;;;;;;0.60;0.60;;;10.40;91.20;;;;;;5134712;28;20046;-74
2023/01/02 12:55:51;;;;;;;0.63;0.60;;;10.40;91.20;;;;;;5134518;28;20402;-74
2023/01/02 12:58:44;;;;;;;0.75;0.63;;;10.30;91.20;;;;;;5134530;28;20512;-74
2023/01/02 13:01:41;;;;;;;0.60;0.60;;;10.40;91.20;;;;;;5135186;28;20070;-74
2023/01/02 13:04:14;;;;;;;1.38;0.75;;;10.30;91.20;;;;;;5134478;28;20102;-74
2023/01/02 13:06:48;;;;;;;0.57;0.50;;;10.30;91.20;;;;;;5134314;28;20064;-74
2023/01/02 13:09:38;;;;;;;1.10;0.90;;;10.30;91.20;;;;;;5116000;28;20050;-74
2023/01/02 13:12:15;;;;;;;1.45;0.80;;;10.30;91.20;;;;;;5120088;28;20067;-73
2023/01/02 13:14:48;;;;;;;1.20;0.82;;;10.20;91.20;;;;;;5134619;28;20118;-74